Time;durP1;ratioP1;P1;durP2;ratioP2;P2;SDS_P1;SDS_P2;PMS_P1;PMS_P2;Temp;Humidity;BMP_temperature;BMP_pressure;BME280_temperature;BME280_humidity;BME280_pressure;Samples;Min_cycle;Max_cycle;Signal;HPM_P1;HPM_P2
2022/11/17 03:47:00;;;;;;;0.95;0.00;;;10.00;90.00;;;;;;5479272;23;87952;-77
2022/11/17 03:49:57;;;;;;;0.40;0.10;;;10.10;90.30;;;;;;4873398;28;90976;-76
2022/11/17 03:52:24;;;;;;;1.25;0.22;;;10.30;90.40;;;;;;4857080;29;87052;-75
2022/11/17 03:54:51;;;;;;;1.52;0.32;;;10.30;90.70;;;;;;4862830;29;87731;-77
2022/11/17 03:57:39;;;;;;;1.25;0.22;;;10.30;91.30;;;;;;4870975;28;86767;-78
2022/11/17 04:00:10;;;;;;;1.13;0.20;;;10.40;91.80;;;;;;4860528;28;87414;-75
2022/11/17 04:02:39;;;;;;;1.30;0.10;;;10.40;91.80;;;;;;4861751;29;89628;-75
2022/11/17 04:05:04;;;;;;;3.00;0.10;;;10.50;92.30;;;;;;4843383;28;86776;-74
2022/11/17 04:07:40;;;;;;;1.63;0.17;;;10.40;90.90;;;;;;4847725;28;86975;-74
2022/11/17 04:10:08;;;;;;;1.98;0.13;;;10.30;91.50;;;;;;4877175;28;87243;-74
2022/11/17 04:15:57;;;;;;;1.13;0.13;;;10.20;91.10;;;;;;4830836;29;86314;-76
2022/11/17 04:18:24;;;;;;;1.67;0.20;;;10.20;91.90;;;;;;4804166;29;87204;-76
2022/11/17 04:20:51;;;;;;;0.90;0.10;;;10.10;93.10;;;;;;4835407;28;88148;-76
2022/11/17 04:23:17;;;;;;;1.63;0.38;;;10.10;93.00;;;;;;4874879;28;88066;-75
2022/11/17 04:28:40;;;;;;;1.08;0.10;;;10.10;92.30;;;;;;4856075;28;87040;-76
2022/11/17 04:31:09;;;;;;;;;;;10.10;92.40;;;;;;4854277;28;87693;-75
2022/11/17 04:33:35;;;;;;;1.35;0.15;;;10.00;92.90;;;;;;4880889;28;88025;-77
2022/11/17 04:36:02;;;;;;;0.93;0.20;;;9.90;93.10;;;;;;4865396;28;86754;-76
2022/11/17 04:38:28;;;;;;;1.05;0.25;;;9.80;93.40;;;;;;4863943;29;86563;-76
2022/11/17 04:43:45;;;;;;;2.38;0.30;;;9.70;94.10;;;;;;4858416;28;86696;-76
2022/11/17 04:46:10;;;;;;;0.85;0.20;;;9.70;94.80;;;;;;4867401;28;87831;-77
2022/11/17 04:48:36;;;;;;;5.78;0.40;;;9.70;95.30;;;;;;4864169;29;87004;-76
2022/11/17 04:51:02;;;;;;;1.75;0.30;;;9.70;95.30;;;;;;4865600;29;89311;-77
2022/11/17 04:53:28;;;;;;;3.90;0.40;;;9.70;96.00;;;;;;4859811;29;87055;-76
2022/11/17 04:55:59;;;;;;;2.13;0.40;;;9.60;96.70;;;;;;4852662;28;86317;-76
2022/11/17 04:58:24;;;;;;;;;;;9.50;96.90;;;;;;4867443;28;86328;-76
2022/11/17 05:00:50;;;;;;;1.83;0.38;;;9.40;96.80;;;;;;4886456;28;87414;-77
2022/11/17 05:03:15;;;;;;;2.28;0.40;;;9.40;96.70;;;;;;4865300;28;86916;-75
2022/11/17 05:05:44;;;;;;;3.05;0.50;;;9.40;96.80;;;;;;4864438;29;86449;-76
2022/11/17 05:08:10;;;;;;;4.80;0.60;;;9.40;97.00;;;;;;4863519;29;86933;-75
2022/11/17 05:13:24;;;;;;;3.10;0.30;;;9.40;96.90;;;;;;4865489;29;87010;-78
2022/11/17 05:18:42;;;;;;;2.65;0.45;;;9.40;96.30;;;;;;4866143;28;86999;-77
2022/11/17 05:21:10;;;;;;;3.60;0.30;;;9.40;96.70;;;;;;4861914;28;88003;-78
2022/11/17 05:23:54;;;;;;;1.85;0.20;;;9.40;95.90;;;;;;4865369;28;87435;-78
2022/11/17 05:26:28;;;;;;;2.30;0.60;;;9.30;95.80;;;;;;4868230;28;86428;-79
2022/11/17 05:28:56;;;;;;;0.98;0.20;;;9.40;95.60;;;;;;4863544;29;86003;-79
2022/11/17 05:31:22;;;;;;;4.28;0.20;;;9.40;94.70;;;;;;4862148;28;86853;-78
2022/11/17 05:33:48;;;;;;;5.55;0.20;;;9.50;94.60;;;;;;4865953;29;86907;-79
2022/11/17 05:36:14;;;;;;;1.42;0.30;;;9.50;93.70;;;;;;4866726;29;89038;-78
2022/11/17 05:38:40;;;;;;;3.03;0.38;;;9.50;94.20;;;;;;4867078;29;86228;-78
2022/11/17 05:41:06;;;;;;;4.07;0.88;;;9.50;94.40;;;;;;4866477;28;86932;-78
2022/11/17 05:43:32;;;;;;;10.93;3.03;;;9.50;95.00;;;;;;4863905;28;87253;-78
2022/11/17 05:45:57;;;;;;;4.38;1.30;;;9.50;94.60;;;;;;4866646;28;86392;-78
2022/11/17 05:48:23;;;;;;;6.25;2.30;;;9.50;93.90;;;;;;4865706;28;87064;-78
2022/11/17 05:50:52;;;;;;;3.60;0.85;;;9.50;94.60;;;;;;4866133;29;87500;-78
2022/11/17 05:53:18;;;;;;;5.60;1.27;;;9.60;94.80;;;;;;4859355;28;87282;-78
2022/11/17 05:55:44;;;;;;;5.63;0.90;;;9.60;95.70;;;;;;4859812;29;87076;-78
2022/11/17 05:58:19;;;;;;;6.18;1.20;;;9.60;95.90;;;;;;4864507;28;86247;-78
2022/11/17 06:00:46;;;;;;;4.40;0.85;;;9.70;95.60;;;;;;4859024;28;88646;-78
2022/11/17 06:03:21;;;;;;;3.63;0.93;;;9.70;95.90;;;;;;4863850;29;90107;-78
2022/11/17 06:05:46;;;;;;;5.70;0.73;;;9.70;96.10;;;;;;4860214;28;86797;-78
2022/11/17 06:08:13;;;;;;;3.72;0.80;;;9.80;96.10;;;;;;4864511;29;86303;-79
2022/11/17 06:10:39;;;;;;;2.17;0.63;;;9.80;96.20;;;;;;4865231;28;87834;-78
2022/11/17 06:13:04;;;;;;;4.18;0.40;;;9.80;96.40;;;;;;4860477;28;89105;-78
2022/11/17 06:15:30;;;;;;;3.50;1.00;;;9.80;96.60;;;;;;4864578;29;86756;-78
2022/11/17 06:18:08;;;;;;;8.00;1.30;;;9.70;97.00;;;;;;4864159;28;86417;-78
2022/11/17 06:20:40;;;;;;;3.67;0.70;;;9.50;97.30;;;;;;4863545;29;87465;-78
2022/11/17 06:23:07;;;;;;;2.33;0.60;;;9.40;97.20;;;;;;4864526;29;86885;-78
2022/11/17 06:25:35;;;;;;;1.63;0.52;;;9.40;97.40;;;;;;4867436;28;87736;-79
2022/11/17 06:28:03;;;;;;;3.63;0.60;;;9.40;97.50;;;;;;4852505;28;86656;-77
2022/11/17 06:30:29;;;;;;;1.67;0.50;;;9.30;98.20;;;;;;4855851;28;87187;-79
2022/11/17 06:32:57;;;;;;;7.30;0.90;;;9.30;98.60;;;;;;4854764;28;87094;-79
2022/11/17 06:35:23;;;;;;;5.22;0.50;;;9.40;98.20;;;;;;4862439;28;87084;-78
2022/11/17 06:37:48;;;;;;;3.38;0.40;;;9.40;98.70;;;;;;4872433;28;86671;-78
2022/11/17 06:40:14;;;;;;;4.57;0.85;;;9.50;97.70;;;;;;4861601;29;88032;-79
2022/11/17 06:45:25;;;;;;;3.80;0.32;;;9.60;97.30;;;;;;4856975;29;87178;-78
2022/11/17 06:47:54;;;;;;;4.75;0.60;;;9.50;97.30;;;;;;4867523;28;86703;-78
2022/11/17 06:50:19;;;;;;;2.75;0.32;;;9.60;97.50;;;;;;4864722;28;89075;-77
2022/11/17 06:52:45;;;;;;;3.08;0.73;;;9.50;97.70;;;;;;4862134;28;87698;-77
2022/11/17 06:55:11;;;;;;;5.43;0.50;;;9.50;98.00;;;;;;4856320;28;86379;-78
2022/11/17 06:57:36;;;;;;;3.08;0.40;;;9.50;98.20;;;;;;4863904;29;86779;-79
2022/11/17 07:00:04;;;;;;;4.90;0.68;;;9.60;98.20;;;;;;4862871;29;86964;-79
2022/11/17 07:02:31;;;;;;;4.88;0.60;;;9.60;98.20;;;;;;4864334;29;86851;-78
2022/11/17 07:04:56;;;;;;;2.65;0.73;;;9.60;97.70;;;;;;4861704;29;86368;-77
2022/11/17 07:07:23;;;;;;;2.78;0.80;;;9.60;97.40;;;;;;4867081;28;85497;-78
2022/11/17 07:09:48;;;;;;;9.57;1.30;;;9.70;97.40;;;;;;4864453;28;88663;-78
2022/11/17 07:12:15;;;;;;;4.18;1.70;;;9.60;97.10;;;;;;4863239;29;86800;-77
2022/11/17 07:14:41;;;;;;;3.80;1.30;;;9.60;97.00;;;;;;4863689;29;87958;-78
2022/11/17 07:17:07;;;;;;;7.82;2.15;;;9.60;97.30;;;;;;4865165;29;86657;-78
2022/11/17 07:19:32;;;;;;;7.43;2.50;;;9.60;97.60;;;;;;4865537;29;87451;-78
2022/11/17 07:21:58;;;;;;;11.48;5.85;;;9.60;97.50;;;;;;4859422;28;87068;-78
2022/11/17 07:24:24;;;;;;;11.13;5.55;;;9.70;97.40;;;;;;4864926;29;86387;-77
2022/11/17 07:26:49;;;;;;;6.72;3.03;;;9.80;97.20;;;;;;4875249;28;86565;-78
2022/11/17 07:29:15;;;;;;;3.90;1.88;;;9.80;97.00;;;;;;4864607;29;87741;-77
2022/11/17 07:31:42;;;;;;;4.07;1.02;;;9.80;97.30;;;;;;4865703;28;88286;-78
2022/11/17 07:34:07;;;;;;;5.88;1.17;;;9.90;96.80;;;;;;4864887;28;86889;-77
2022/11/17 07:36:33;;;;;;;4.90;1.48;;;10.10;96.50;;;;;;4860593;29;86488;-78
2022/11/17 07:38:59;;;;;;;5.65;0.73;;;10.20;96.30;;;;;;4861597;29;89319;-77
2022/11/17 07:41:24;;;;;;;3.47;0.60;;;10.20;95.50;;;;;;4857366;28;87032;-80
2022/11/17 07:43:50;;;;;;;4.32;0.90;;;10.20;95.70;;;;;;4866008;29;86774;-78
2022/11/17 07:46:15;;;;;;;4.85;1.02;;;10.10;95.60;;;;;;4862123;29;86345;-81
2022/11/17 07:48:42;;;;;;;4.35;1.10;;;10.20;96.10;;;;;;4861358;29;86700;-78
2022/11/17 07:51:08;;;;;;;5.25;1.10;;;10.20;96.00;;;;;;4865713;29;86731;-78
2022/11/17 07:53:34;;;;;;;4.05;1.00;;;10.30;96.10;;;;;;4865302;28;86321;-78
2022/11/17 07:56:05;;;;;;;4.32;1.02;;;10.50;95.80;;;;;;4865255;28;85610;-78
2022/11/17 07:58:31;;;;;;;7.47;1.60;;;10.60;95.60;;;;;;4865059;28;89957;-80
2022/11/17 08:00:56;;;;;;;6.18;2.03;;;10.60;95.60;;;;;;4864932;28;87083;-78
2022/11/17 08:03:23;;;;;;;7.07;1.80;;;10.60;95.50;;;;;;4864685;28;87888;-78
2022/11/17 08:05:49;;;;;;;3.72;1.35;;;10.50;95.30;;;;;;4864942;28;86591;-78
2022/11/17 08:08:14;;;;;;;5.82;1.10;;;10.30;95.20;;;;;;4862760;29;90399;-78
2022/11/17 08:10:41;;;;;;;6.93;1.00;;;10.10;96.00;;;;;;4863768;28;87081;-78
2022/11/17 08:13:07;;;;;;;14.13;1.13;;;10.20;96.40;;;;;;4864932;28;87122;-79
2022/11/17 08:15:34;;;;;;;12.05;1.70;;;10.40;96.40;;;;;;4859282;28;86705;-78
2022/11/17 08:18:00;;;;;;;6.28;1.10;;;10.60;94.70;;;;;;4864646;29;86493;-77
2022/11/17 08:20:28;;;;;;;7.25;1.38;;;10.80;94.00;;;;;;4864424;29;86323;-78
2022/11/17 08:22:54;;;;;;;6.03;1.60;;;11.30;93.20;;;;;;4855308;29;86651;-78
2022/11/17 08:25:21;;;;;;;6.63;1.10;;;11.60;92.50;;;;;;4862234;28;86200;-77
2022/11/17 08:27:50;;;;;;;3.85;1.20;;;11.60;93.00;;;;;;4863532;28;88418;-79
2022/11/17 08:30:18;;;;;;;4.38;1.40;;;12.10;92.70;;;;;;4863633;28;88417;-76
2022/11/17 08:32:51;;;;;;;8.43;1.05;;;12.30;91.50;;;;;;4864291;29;86920;-77
2022/11/17 08:35:20;;;;;;;7.60;0.80;;;12.50;90.70;;;;;;4863771;28;86300;-78
2022/11/17 08:37:46;;;;;;;2.83;0.68;;;12.30;91.00;;;;;;4856493;28;86726;-78
2022/11/17 08:40:12;;;;;;;2.17;0.60;;;12.30;90.60;;;;;;4864153;29;86773;-78
2022/11/17 08:42:38;;;;;;;3.00;0.73;;;12.20;90.20;;;;;;4863031;28;86229;-79
2022/11/17 08:45:05;;;;;;;3.63;0.63;;;12.20;89.80;;;;;;4861814;29;86241;-76
2022/11/17 08:47:31;;;;;;;3.40;0.32;;;12.30;88.70;;;;;;4853026;29;88865;-79
2022/11/17 08:49:57;;;;;;;1.45;0.32;;;12.20;87.90;;;;;;4864292;28;87362;-78
2022/11/17 08:52:22;;;;;;;2.55;0.55;;;12.20;87.90;;;;;;4856088;29;87847;-77
2022/11/17 08:54:50;;;;;;;3.10;0.80;;;12.30;90.00;;;;;;4862912;29;86947;-77
2022/11/17 08:57:16;;;;;;;4.60;1.08;;;12.30;88.10;;;;;;4857122;29;87345;-78
2022/11/17 08:59:42;;;;;;;4.97;1.63;;;12.40;87.10;;;;;;4860871;28;88746;-77
2022/11/17 09:02:10;;;;;;;4.70;1.42;;;12.50;87.20;;;;;;4859194;29;86296;-77
2022/11/17 09:04:35;;;;;;;5.25;2.35;;;12.60;87.80;;;;;;4862700;28;86281;-78
2022/11/17 09:07:01;;;;;;;7.03;1.55;;;12.70;87.80;;;;;;4863807;28;89410;-77
2022/11/17 09:09:30;;;;;;;6.18;1.60;;;12.70;88.20;;;;;;4862996;28;87367;-78
2022/11/17 09:11:56;;;;;;;6.10;1.40;;;12.80;88.20;;;;;;4861242;28;86164;-78
2022/11/17 09:14:22;;;;;;;7.53;1.88;;;12.80;87.60;;;;;;4853322;28;86822;-79
2022/11/17 09:16:47;;;;;;;5.40;1.40;;;12.90;87.60;;;;;;4859031;28;87908;-77
2022/11/17 09:19:14;;;;;;;7.22;1.27;;;12.80;88.90;;;;;;4858029;28;87282;-77
2022/11/17 09:21:39;;;;;;;3.20;0.70;;;12.80;84.40;;;;;;4856050;29;86713;-78
2022/11/17 09:24:05;;;;;;;4.82;0.80;;;12.70;84.90;;;;;;4863379;29;86582;-82
2022/11/17 09:26:31;;;;;;;3.08;0.40;;;12.70;85.40;;;;;;4863186;28;86983;-79
2022/11/17 09:29:02;;;;;;;2.65;0.38;;;12.70;83.30;;;;;;4865288;28;87292;-78
2022/11/17 09:31:28;;;;;;;0.90;0.10;;;12.70;83.10;;;;;;4858440;29;87173;-78
2022/11/17 09:33:54;;;;;;;3.75;0.20;;;12.60;81.50;;;;;;4861415;29;85526;-78
2022/11/17 09:36:20;;;;;;;2.25;0.32;;;12.60;84.60;;;;;;4865505;28;86733;-78
2022/11/17 09:38:46;;;;;;;1.70;0.30;;;12.60;84.70;;;;;;4866229;28;86673;-77
2022/11/17 09:41:15;;;;;;;4.07;0.43;;;12.70;84.90;;;;;;4860688;28;87425;-78
2022/11/17 09:44:08;;;;;;;1.80;0.40;;;12.70;85.40;;;;;;4861900;29;86385;-77
2022/11/17 09:46:52;;;;;;;3.03;0.30;;;12.70;84.70;;;;;;4847564;28;87802;-76
2022/11/17 09:49:32;;;;;;;2.25;0.10;;;12.70;83.40;;;;;;4868523;28;87639;-76
2022/11/17 09:52:21;;;;;;;4.00;0.45;;;12.90;83.00;;;;;;4866875;28;88712;-76
2022/11/17 09:54:57;;;;;;;2.70;0.65;;;13.00;84.20;;;;;;4836764;28;86352;-76
2022/11/17 09:57:46;;;;;;;3.03;0.52;;;13.00;83.20;;;;;;4865971;28;87755;-76
2022/11/17 10:00:13;;;;;;;3.13;0.20;;;12.90;84.20;;;;;;4858497;29;86638;-77
2022/11/17 10:02:41;;;;;;;1.23;0.10;;;13.00;80.80;;;;;;4863414;28;86693;-77
2022/11/17 10:05:19;;;;;;;1.20;0.10;;;13.20;79.60;;;;;;4858457;28;86303;-77
2022/11/17 10:07:49;;;;;;;1.48;0.10;;;13.40;77.80;;;;;;4863723;28;87516;-77
2022/11/17 10:10:56;;;;;;;3.83;0.10;;;13.60;77.70;;;;;;4857882;28;88451;-77
2022/11/17 10:13:34;;;;;;;1.65;0.10;;;13.70;75.30;;;;;;4834604;29;87726;-76
2022/11/17 10:16:04;;;;;;;0.85;0.10;;;13.90;73.90;;;;;;4836261;29;86357;-76
2022/11/17 10:18:34;;;;;;;2.53;0.10;;;14.00;75.20;;;;;;4848591;29;88711;-77
2022/11/17 10:20:59;;;;;;;1.05;0.03;;;14.10;72.70;;;;;;4854292;29;86384;-77
2022/11/17 10:23:33;;;;;;;1.15;0.10;;;14.20;72.40;;;;;;4861979;29;87109;-77
2022/11/17 10:25:59;;;;;;;1.38;0.20;;;14.30;73.60;;;;;;4858130;28;85798;-77
2022/11/17 10:28:33;;;;;;;1.17;0.10;;;14.40;72.90;;;;;;4862311;29;87084;-76
2022/11/17 10:31:14;;;;;;;1.73;0.10;;;14.40;70.90;;;;;;4862070;28;87012;-77
2022/11/17 10:33:49;;;;;;;1.77;0.10;;;14.60;72.70;;;;;;4864535;28;87254;-76
2022/11/17 10:36:30;;;;;;;1.92;0.10;;;14.80;72.80;;;;;;4858902;28;86668;-77
2022/11/17 10:38:59;;;;;;;1.77;0.10;;;15.10;73.20;;;;;;4855739;28;87252;-77
2022/11/17 10:41:44;;;;;;;4.18;0.20;;;15.30;71.10;;;;;;4862583;28;87867;-77
2022/11/17 10:44:25;;;;;;;3.90;0.10;;;15.30;71.10;;;;;;4865229;28;86711;-76
2022/11/17 10:47:02;;;;;;;1.08;0.30;;;15.40;71.00;;;;;;4860210;28;86698;-77
2022/11/17 10:49:37;;;;;;;1.27;0.13;;;15.40;71.50;;;;;;4865008;28;87760;-76
2022/11/17 10:52:23;;;;;;;2.15;0.30;;;15.40;70.90;;;;;;4860628;28;87232;-77
2022/11/17 10:54:48;;;;;;;1.88;0.10;;;15.40;71.40;;;;;;4856333;29;86472;-77
2022/11/17 10:57:20;;;;;;;3.38;0.32;;;15.40;71.70;;;;;;4861713;28;86672;-77
2022/11/17 10:59:56;;;;;;;2.60;0.22;;;15.30;71.60;;;;;;4861794;28;88593;-77
2022/11/17 11:02:34;;;;;;;2.45;0.22;;;15.30;71.30;;;;;;4862236;28;86940;-76
2022/11/17 11:05:15;;;;;;;2.13;0.13;;;15.20;71.00;;;;;;4852486;28;86582;-76
2022/11/17 11:07:41;;;;;;;1.48;0.20;;;15.20;71.30;;;;;;4854975;28;86789;-77
2022/11/17 11:10:17;;;;;;;2.80;0.10;;;15.10;73.90;;;;;;4857356;28;89437;-75
2022/11/17 11:13:42;;;;;;;2.58;0.10;;;15.10;72.80;;;;;;4861712;28;86877;-75
2022/11/17 11:16:10;;;;;;;2.90;0.40;;;15.20;73.10;;;;;;4803449;29;87242;-75
2022/11/17 11:18:37;;;;;;;1.67;0.30;;;15.30;74.50;;;;;;4800587;29;86777;-75
2022/11/17 11:21:41;;;;;;;3.47;0.32;;;15.40;74.40;;;;;;4824597;28;86693;-75
2022/11/17 11:24:13;;;;;;;2.92;0.38;;;15.40;73.90;;;;;;4846881;28;87906;-77
2022/11/17 11:26:47;;;;;;;4.03;0.43;;;15.50;74.20;;;;;;4850584;28;87732;-75
2022/11/17 11:29:20;;;;;;;3.30;0.38;;;15.50;73.20;;;;;;4849230;28;86352;-77
2022/11/17 11:31:51;;;;;;;2.50;0.38;;;15.60;72.30;;;;;;4853426;28;87331;-74
2022/11/17 11:34:41;;;;;;;3.72;0.32;;;15.70;72.70;;;;;;4851300;28;87056;-74
2022/11/17 11:37:15;;;;;;;5.75;0.43;;;15.70;72.50;;;;;;4854451;28;87173;-74
2022/11/17 11:40:21;;;;;;;2.83;0.30;;;15.80;71.70;;;;;;4857516;28;88631;-75
2022/11/17 11:42:58;;;;;;;4.35;0.73;;;15.70;71.90;;;;;;4859678;28;89512;-77
2022/11/17 11:45:52;;;;;;;5.00;0.50;;;15.60;72.00;;;;;;4860858;28;87208;-75
2022/11/17 11:48:30;;;;;;;3.65;0.47;;;15.60;73.10;;;;;;4857174;28;87250;-75
2022/11/17 11:50:57;;;;;;;2.53;0.30;;;15.70;73.10;;;;;;4855131;28;86631;-75
2022/11/17 11:53:51;;;;;;;4.03;0.65;;;15.60;71.70;;;;;;4855805;28;88709;-77
2022/11/17 11:56:31;;;;;;;4.38;0.57;;;15.50;73.10;;;;;;4857434;28;87140;-78
2022/11/17 11:59:11;;;;;;;4.90;0.93;;;15.50;75.20;;;;;;4855624;28;86651;-74
2022/11/17 12:01:51;;;;;;;5.85;0.73;;;15.50;73.80;;;;;;4855399;28;86327;-78
2022/11/17 12:04:23;;;;;;;5.10;0.85;;;15.50;74.00;;;;;;4862567;28;86968;-75
2022/11/17 12:07:12;;;;;;;2.47;0.43;;;15.50;74.00;;;;;;4854519;28;86775;-74
2022/11/17 12:09:41;;;;;;;1.95;0.38;;;15.30;72.90;;;;;;4851301;28;86619;-75
2022/11/17 12:12:13;;;;;;;2.25;0.40;;;15.30;73.40;;;;;;4855370;28;86216;-76
2022/11/17 12:14:40;;;;;;;3.47;0.30;;;15.30;72.70;;;;;;4854572;28;87521;-78
2022/11/17 12:17:25;;;;;;;4.13;0.57;;;15.50;72.20;;;;;;4867225;28;87295;-77
2022/11/17 12:19:54;;;;;;;4.53;0.55;;;15.50;72.20;;;;;;4853456;28;87532;-73
2022/11/17 12:22:29;;;;;;;5.95;0.80;;;15.50;72.40;;;;;;4857924;28;86957;-75
2022/11/17 12:25:27;;;;;;;4.85;0.57;;;15.50;72.80;;;;;;4864526;28;86983;-75
2022/11/17 12:27:53;;;;;;;4.82;0.28;;;15.40;72.30;;;;;;4861325;28;86679;-75
2022/11/17 12:30:37;;;;;;;3.05;0.35;;;15.30;72.90;;;;;;4857502;29;86818;-77
2022/11/17 12:33:04;;;;;;;3.45;0.80;;;15.30;74.40;;;;;;4853732;28;87256;-77
2022/11/17 12:35:33;;;;;;;4.45;1.00;;;15.30;74.50;;;;;;4856926;28;86962;-76
2022/11/17 12:38:14;;;;;;;5.60;0.63;;;15.40;75.20;;;;;;4855182;28;86391;-78
2022/11/17 12:40:42;;;;;;;3.85;0.70;;;15.40;74.80;;;;;;4858993;29;86579;-77
2022/11/17 12:43:24;;;;;;;5.40;0.90;;;15.50;74.70;;;;;;4858144;28;86714;-77
2022/11/17 12:46:11;;;;;;;;;;;15.60;74.20;;;;;;4852642;29;87893;-76
2022/11/17 12:48:43;;;;;;;4.60;0.55;;;15.60;74.70;;;;;;4866232;28;88133;-76
2022/11/17 12:51:20;;;;;;;2.92;0.50;;;15.80;75.50;;;;;;4864667;28;86778;-77
2022/11/17 12:54:14;;;;;;;2.15;0.22;;;15.80;75.20;;;;;;4858701;28;86347;-77
2022/11/17 12:56:52;;;;;;;1.88;0.22;;;15.90;73.90;;;;;;4858513;28;87215;-76
2022/11/17 12:59:42;;;;;;;5.43;0.50;;;15.90;73.20;;;;;;4852182;28;87577;-77
2022/11/17 13:02:24;;;;;;;1.70;0.20;;;15.80;73.40;;;;;;4857732;28;86223;-76
2022/11/17 13:05:17;;;;;;;2.70;0.30;;;15.90;73.90;;;;;;4862546;29;86358;-78
2022/11/17 13:07:43;;;;;;;1.80;0.32;;;15.90;73.10;;;;;;4858797;28;89046;-79
2022/11/17 13:10:25;;;;;;;3.78;0.32;;;15.90;73.60;;;;;;4859678;29;87447;-78
2022/11/17 13:13:09;;;;;;;2.08;0.25;;;15.90;74.90;;;;;;4863450;29;87968;-78
2022/11/17 13:15:35;;;;;;;2.88;0.30;;;15.80;74.50;;;;;;4863518;28;86924;-78
2022/11/17 13:18:00;;;;;;;2.83;0.32;;;15.80;74.90;;;;;;4857103;28;87209;-77
2022/11/17 13:20:28;;;;;;;2.58;0.30;;;15.80;75.00;;;;;;4873131;28;88538;-78
2022/11/17 13:23:03;;;;;;;4.18;0.75;;;15.80;75.30;;;;;;4853581;29;86699;-77
2022/11/17 13:25:29;;;;;;;1.60;0.22;;;15.80;75.70;;;;;;4863895;28;86594;-78
2022/11/17 13:27:55;;;;;;;1.80;0.30;;;15.80;74.40;;;;;;4862138;28;87755;-77
2022/11/17 13:30:26;;;;;;;2.78;0.20;;;15.90;73.90;;;;;;4863613;29;86245;-78
2022/11/17 13:32:54;;;;;;;2.33;0.20;;;15.90;73.40;;;;;;4863628;28;86369;-77
2022/11/17 13:35:27;;;;;;;1.38;0.20;;;15.90;73.50;;;;;;4862896;28;86364;-79
2022/11/17 13:38:04;;;;;;;1.33;0.10;;;15.90;71.90;;;;;;4862014;28;88338;-78
2022/11/17 13:40:32;;;;;;;3.97;0.22;;;15.90;73.10;;;;;;4863389;28;87790;-77
2022/11/17 13:42:58;;;;;;;2.80;0.20;;;15.80;73.20;;;;;;4861539;29;86944;-77
2022/11/17 13:45:24;;;;;;;3.40;0.28;;;15.80;73.60;;;;;;4862154;29;86868;-79
2022/11/17 13:47:50;;;;;;;2.47;0.22;;;15.80;74.80;;;;;;4862222;28;86866;-79
2022/11/17 13:50:28;;;;;;;3.72;0.32;;;15.90;75.00;;;;;;4862726;28;86366;-77
2022/11/17 13:53:05;;;;;;;2.22;0.22;;;15.90;75.70;;;;;;4863570;28;86418;-78
2022/11/17 13:55:33;;;;;;;2.03;0.20;;;16.10;75.60;;;;;;4862856;28;85829;-78
2022/11/17 13:57:58;;;;;;;3.22;0.35;;;16.10;75.20;;;;;;4861090;29;88899;-79
2022/11/17 14:00:24;;;;;;;5.00;0.22;;;16.20;74.50;;;;;;4857131;28;87116;-78
2022/11/17 14:02:58;;;;;;;4.43;0.40;;;16.30;74.40;;;;;;4859678;28;87796;-78
2022/11/17 14:05:29;;;;;;;3.10;0.38;;;16.40;73.90;;;;;;4859201;28;86789;-79
2022/11/17 14:07:56;;;;;;;4.03;0.30;;;16.40;73.40;;;;;;4862450;29;87760;-76
2022/11/17 14:10:21;;;;;;;2.60;0.30;;;16.30;74.00;;;;;;4861047;28;86938;-78
2022/11/17 14:12:48;;;;;;;5.00;0.25;;;16.20;73.10;;;;;;4863547;29;86651;-78
2022/11/17 14:15:19;;;;;;;5.50;0.40;;;16.20;72.40;;;;;;4859833;29;86753;-78
2022/11/17 14:17:57;;;;;;;7.05;0.40;;;16.20;72.50;;;;;;4858117;28;87252;-78
2022/11/17 14:20:22;;;;;;;2.58;0.20;;;16.10;72.40;;;;;;4861530;29;86259;-78
2022/11/17 14:23:07;;;;;;;3.88;0.22;;;16.00;71.40;;;;;;4862370;29;86560;-78
2022/11/17 14:25:41;;;;;;;2.88;0.25;;;15.90;71.80;;;;;;4862469;28;86986;-77
2022/11/17 14:28:35;;;;;;;2.75;0.28;;;15.80;72.40;;;;;;4860743;29;88203;-77
2022/11/17 14:31:01;;;;;;;7.22;0.20;;;15.70;72.70;;;;;;4849653;29;87010;-78
2022/11/17 14:33:27;;;;;;;4.75;0.90;;;15.60;72.90;;;;;;4862550;29;86251;-77
2022/11/17 14:35:58;;;;;;;3.10;0.50;;;15.40;73.20;;;;;;4859958;29;86810;-77
2022/11/17 14:38:24;;;;;;;4.03;0.60;;;15.30;73.90;;;;;;4860016;28;91234;-77
2022/11/17 14:40:51;;;;;;;2.55;0.40;;;15.20;74.20;;;;;;4862961;28;86975;-78
2022/11/17 14:43:21;;;;;;;4.78;0.80;;;15.10;74.60;;;;;;4855723;29;86690;-78
2022/11/17 14:45:48;;;;;;;4.85;0.60;;;15.10;74.80;;;;;;4862069;29;85653;-78
2022/11/17 14:48:15;;;;;;;2.00;0.40;;;15.00;74.70;;;;;;4860258;28;88194;-77
2022/11/17 14:50:41;;;;;;;3.83;0.32;;;14.90;75.10;;;;;;4860164;29;86329;-77
2022/11/17 14:53:07;;;;;;;6.43;1.15;;;14.90;75.50;;;;;;4859469;28;88443;-78
2022/11/17 14:55:33;;;;;;;6.25;1.00;;;14.90;76.30;;;;;;4861777;29;86287;-78
2022/11/17 14:57:59;;;;;;;4.28;1.00;;;14.80;76.90;;;;;;4861791;28;87116;-78
2022/11/17 15:00:24;;;;;;;4.22;0.98;;;14.70;77.20;;;;;;4859070;28;87117;-77
2022/11/17 15:02:50;;;;;;;3.10;0.50;;;14.70;77.60;;;;;;4861461;29;86255;-77
2022/11/17 15:05:16;;;;;;;4.85;1.33;;;14.60;80.10;;;;;;4861587;29;86673;-78
2022/11/17 15:07:42;;;;;;;6.05;1.55;;;14.60;80.20;;;;;;4859148;29;87590;-78
2022/11/17 15:10:08;;;;;;;4.00;1.23;;;14.50;79.50;;;;;;4853688;28;87813;-77
2022/11/17 15:12:34;;;;;;;3.85;0.95;;;14.50;79.80;;;;;;4861978;29;86691;-77
2022/11/17 15:14:59;;;;;;;4.70;0.90;;;14.50;79.70;;;;;;4861614;29;86236;-78
2022/11/17 15:17:26;;;;;;;4.95;0.85;;;14.50;80.00;;;;;;4861044;29;88676;-78
2022/11/17 15:19:52;;;;;;;6.38;1.42;;;14.50;79.50;;;;;;4861635;28;87589;-77
2022/11/17 15:22:18;;;;;;;5.38;1.05;;;14.50;79.60;;;;;;4860937;28;87724;-77
2022/11/17 15:24:44;;;;;;;7.50;2.67;;;14.40;80.10;;;;;;4860946;28;87069;-78
2022/11/17 15:27:10;;;;;;;8.05;3.22;;;14.40;80.40;;;;;;4859363;29;86828;-78
2022/11/17 15:29:35;;;;;;;6.57;1.83;;;14.40;80.10;;;;;;4860778;28;86525;-77
2022/11/17 15:32:01;;;;;;;5.38;1.17;;;14.30;80.50;;;;;;4859338;29;86501;-78
2022/11/17 15:34:27;;;;;;;4.47;0.93;;;14.30;80.50;;;;;;4860404;29;85979;-77
2022/11/17 15:36:53;;;;;;;7.47;1.55;;;14.20;80.80;;;;;;4861464;29;86976;-77
2022/11/17 15:39:19;;;;;;;7.82;3.33;;;14.10;81.80;;;;;;4860255;29;87169;-77
2022/11/17 15:41:46;;;;;;;6.53;3.30;;;14.00;82.00;;;;;;4860096;28;87533;-78
2022/11/17 15:44:12;;;;;;;4.13;1.08;;;13.80;81.70;;;;;;4853354;29;86405;-78
2022/11/17 15:46:37;;;;;;;6.10;1.45;;;13.70;82.20;;;;;;4857769;28;86887;-77
2022/11/17 15:49:03;;;;;;;7.40;1.60;;;13.70;82.50;;;;;;4857129;28;90680;-78
2022/11/17 15:51:29;;;;;;;6.72;2.45;;;13.70;82.80;;;;;;4860922;29;86632;-78
2022/11/17 15:53:57;;;;;;;10.38;1.63;;;13.70;83.30;;;;;;4861533;28;86924;-77
2022/11/17 15:56:27;;;;;;;6.93;1.48;;;13.60;83.40;;;;;;4860853;28;86960;-77
2022/11/17 15:59:00;;;;;;;4.90;1.10;;;13.50;84.10;;;;;;4859932;28;86328;-78
2022/11/17 16:01:37;;;;;;;9.77;1.10;;;13.40;84.30;;;;;;4860874;28;86384;-77
2022/11/17 16:04:11;;;;;;;10.18;0.95;;;13.30;85.20;;;;;;4855604;29;86966;-77
2022/11/17 16:06:39;;;;;;;6.75;1.02;;;13.20;86.00;;;;;;4858726;29;91128;-78
2022/11/17 16:09:06;;;;;;;9.57;0.80;;;13.10;86.40;;;;;;4860007;28;87753;-77
2022/11/17 16:11:32;;;;;;;11.88;1.48;;;13.00;87.30;;;;;;4861222;29;86793;-77
2022/11/17 16:13:59;;;;;;;6.60;1.17;;;13.00;87.20;;;;;;4860744;28;86709;-78
2022/11/17 16:16:27;;;;;;;9.15;1.08;;;12.90;86.70;;;;;;4861299;28;86873;-78
2022/11/17 16:18:53;;;;;;;12.40;1.02;;;12.90;87.80;;;;;;4859250;28;87055;-78
2022/11/17 16:21:19;;;;;;;7.05;1.17;;;13.00;87.60;;;;;;4857713;28;86288;-78
2022/11/17 16:23:50;;;;;;;6.55;1.23;;;12.90;87.20;;;;;;4854308;28;86131;-77
2022/11/17 16:26:18;;;;;;;10.73;1.13;;;12.90;87.20;;;;;;4865169;28;86401;-77
2022/11/17 16:28:45;;;;;;;8.90;1.00;;;12.90;87.80;;;;;;4849621;28;86383;-78
2022/11/17 16:31:15;;;;;;;12.80;1.50;;;12.90;87.70;;;;;;4847074;28;87718;-77
2022/11/17 16:33:56;;;;;;;8.18;1.73;;;12.80;88.00;;;;;;4851274;28;87903;-77
2022/11/17 16:36:24;;;;;;;6.82;1.33;;;12.70;88.40;;;;;;4860577;28;90955;-77
2022/11/17 16:38:51;;;;;;;11.95;1.35;;;12.70;89.00;;;;;;4858068;28;87832;-78
2022/11/17 16:41:17;;;;;;;12.25;1.67;;;12.60;89.70;;;;;;4854210;28;86562;-77
2022/11/17 16:43:43;;;;;;;7.55;1.45;;;12.50;89.30;;;;;;4859294;28;86610;-77
2022/11/17 16:46:21;;;;;;;7.50;1.45;;;12.50;89.10;;;;;;4854650;28;88767;-77
2022/11/17 16:48:48;;;;;;;7.63;1.70;;;12.50;89.30;;;;;;4856698;28;87160;-77
2022/11/17 16:51:18;;;;;;;6.15;1.48;;;12.50;89.60;;;;;;4858553;29;87404;-76
2022/11/17 16:53:46;;;;;;;8.93;1.73;;;12.50;89.90;;;;;;4866081;28;86670;-77
2022/11/17 16:56:12;;;;;;;11.45;1.98;;;12.50;90.10;;;;;;4860981;28;88187;-77
2022/11/17 16:58:38;;;;;;;9.68;1.90;;;12.40;90.10;;;;;;4854526;28;87412;-77
2022/11/17 17:01:11;;;;;;;7.43;1.70;;;12.40;90.10;;;;;;4861713;28;87110;-77
2022/11/17 17:03:38;;;;;;;5.55;1.20;;;12.40;90.40;;;;;;4866373;28;86802;-77
2022/11/17 17:06:06;;;;;;;6.90;1.95;;;12.30;90.40;;;;;;4856586;28;88079;-78
2022/11/17 17:08:32;;;;;;;7.63;1.55;;;12.30;90.40;;;;;;4853283;28;86536;-77
2022/11/17 17:11:02;;;;;;;12.63;1.80;;;12.20;90.10;;;;;;4852764;28;88727;-77